sensor_id;sensor_type;location;lat;lon;timestamp;temperature;humidity
77207;DHT22;66190;50.708;7.906;2022-12-18T00:02:14;-4.10;72.10
77207;DHT22;66190;50.708;7.906;2022-12-18T00:04:40;-4.10;72.60
77207;DHT22;66190;50.708;7.906;2022-12-18T00:07:05;-4.10;72.60
77207;DHT22;66190;50.708;7.906;2022-12-18T00:09:31;-4.00;72.70
77207;DHT22;66190;50.708;7.906;2022-12-18T00:11:56;-4.00;72.30
77207;DHT22;66190;50.708;7.906;2022-12-18T00:14:22;-3.90;72.20
77207;DHT22;66190;50.708;7.906;2022-12-18T00:16:48;-4.00;72.40
77207;DHT22;66190;50.708;7.906;2022-12-18T00:19:14;-4.00;72.40
77207;DHT22;66190;50.708;7.906;2022-12-18T00:21:40;-4.10;72.40
77207;DHT22;66190;50.708;7.906;2022-12-18T00:24:07;-4.10;72.60
77207;DHT22;66190;50.708;7.906;2022-12-18T00:26:34;-4.10;72.60
77207;DHT22;66190;50.708;7.906;2022-12-18T00:29:02;-4.20;72.70
77207;DHT22;66190;50.708;7.906;2022-12-18T00:31:28;-4.20;72.70
77207;DHT22;66190;50.708;7.906;2022-12-18T00:33:55;-4.30;73.10
77207;DHT22;66190;50.708;7.906;2022-12-18T00:36:27;-4.20;72.80
77207;DHT22;66190;50.708;7.906;2022-12-18T00:38:57;-4.20;73.00
77207;DHT22;66190;50.708;7.906;2022-12-18T00:41:23;-4.20;73.20
77207;DHT22;66190;50.708;7.906;2022-12-18T00:44:10;-4.20;73.50
77207;DHT22;66190;50.708;7.906;2022-12-18T00:46:36;-4.10;73.70
77207;DHT22;66190;50.708;7.906;2022-12-18T00:49:02;-4.10;73.50
77207;DHT22;66190;50.708;7.906;2022-12-18T00:51:27;-4.10;73.90
77207;DHT22;66190;50.708;7.906;2022-12-18T00:53:53;-4.10;74.00
77207;DHT22;66190;50.708;7.906;2022-12-18T00:56:19;-4.10;74.00
77207;DHT22;66190;50.708;7.906;2022-12-18T00:58:44;-4.00;73.80
77207;DHT22;66190;50.708;7.906;2022-12-18T01:01:10;-4.00;73.60
77207;DHT22;66190;50.708;7.906;2022-12-18T01:03:35;-3.90;73.50
77207;DHT22;66190;50.708;7.906;2022-12-18T01:06:09;-3.90;73.30
77207;DHT22;66190;50.708;7.906;2022-12-18T01:08:37;-4.00;73.30
77207;DHT22;66190;50.708;7.906;2022-12-18T01:11:15;-4.00;73.50
77207;DHT22;66190;50.708;7.906;2022-12-18T01:13:41;-4.00;73.20
77207;DHT22;66190;50.708;7.906;2022-12-18T01:16:08;-4.00;73.40
77207;DHT22;66190;50.708;7.906;2022-12-18T01:18:34;-4.10;73.70
77207;DHT22;66190;50.708;7.906;2022-12-18T01:21:00;-4.10;73.60
77207;DHT22;66190;50.708;7.906;2022-12-18T01:23:26;-4.10;73.80
77207;DHT22;66190;50.708;7.906;2022-12-18T01:25:51;-4.10;74.00
77207;DHT22;66190;50.708;7.906;2022-12-18T01:28:17;-4.10;73.90
77207;DHT22;66190;50.708;7.906;2022-12-18T01:30:43;-4.10;74.10
77207;DHT22;66190;50.708;7.906;2022-12-18T01:33:08;-4.10;74.00
77207;DHT22;66190;50.708;7.906;2022-12-18T01:35:40;-4.10;74.20
77207;DHT22;66190;50.708;7.906;2022-12-18T01:38:06;-4.20;74.30
77207;DHT22;66190;50.708;7.906;2022-12-18T01:40:32;-4.10;74.90
77207;DHT22;66190;50.708;7.906;2022-12-18T01:42:58;-4.20;74.60
77207;DHT22;66190;50.708;7.906;2022-12-18T01:45:28;-4.20;74.50
77207;DHT22;66190;50.708;7.906;2022-12-18T01:48:03;-4.20;74.30
77207;DHT22;66190;50.708;7.906;2022-12-18T01:50:37;-4.30;74.50
77207;DHT22;66190;50.708;7.906;2022-12-18T01:53:07;-4.20;74.50
77207;DHT22;66190;50.708;7.906;2022-12-18T01:55:38;-4.20;74.50
77207;DHT22;66190;50.708;7.906;2022-12-18T01:58:07;-4.10;74.40
77207;DHT22;66190;50.708;7.906;2022-12-18T02:00:32;-4.00;74.10
77207;DHT22;66190;50.708;7.906;2022-12-18T02:02:59;-4.00;73.70
77207;DHT22;66190;50.708;7.906;2022-12-18T02:05:29;-4.00;73.50
77207;DHT22;66190;50.708;7.906;2022-12-18T02:08:16;-4.00;73.60
77207;DHT22;66190;50.708;7.906;2022-12-18T02:10:45;-4.00;73.20
77207;DHT22;66190;50.708;7.906;2022-12-18T02:19:20;-3.90;73.20
77207;DHT22;66190;50.708;7.906;2022-12-18T02:22:06;-4.00;73.00
77207;DHT22;66190;50.708;7.906;2022-12-18T02:24:48;-4.00;73.00
77207;DHT22;66190;50.708;7.906;2022-12-18T02:27:19;-4.00;73.20
77207;DHT22;66190;50.708;7.906;2022-12-18T02:29:52;-4.00;73.10
77207;DHT22;66190;50.708;7.906;2022-12-18T02:32:29;-4.10;73.40
77207;DHT22;66190;50.708;7.906;2022-12-18T02:34:57;-4.20;73.60
77207;DHT22;66190;50.708;7.906;2022-12-18T02:37:24;-4.20;73.70
77207;DHT22;66190;50.708;7.906;2022-12-18T02:39:53;-4.20;73.70
77207;DHT22;66190;50.708;7.906;2022-12-18T02:42:22;-4.10;73.50
77207;DHT22;66190;50.708;7.906;2022-12-18T02:44:50;-4.20;73.30
77207;DHT22;66190;50.708;7.906;2022-12-18T02:47:18;-4.20;73.40
77207;DHT22;66190;50.708;7.906;2022-12-18T02:50:07;-4.30;73.70
77207;DHT22;66190;50.708;7.906;2022-12-18T02:52:35;-4.40;74.00
77207;DHT22;66190;50.708;7.906;2022-12-18T02:58:29;-4.60;74.80
77207;DHT22;66190;50.708;7.906;2022-12-18T03:01:03;-4.60;75.00
77207;DHT22;66190;50.708;7.906;2022-12-18T03:03:41;-4.70;75.10
77207;DHT22;66190;50.708;7.906;2022-12-18T03:06:21;-4.70;75.20
77207;DHT22;66190;50.708;7.906;2022-12-18T03:08:51;-4.80;75.50
77207;DHT22;66190;50.708;7.906;2022-12-18T03:11:18;-4.70;75.90
77207;DHT22;66190;50.708;7.906;2022-12-18T03:14:04;-4.70;75.80
77207;DHT22;66190;50.708;7.906;2022-12-18T03:16:31;-4.70;75.60
77207;DHT22;66190;50.708;7.906;2022-12-18T03:19:01;-4.70;76.20
77207;DHT22;66190;50.708;7.906;2022-12-18T03:21:41;-4.70;75.80
77207;DHT22;66190;50.708;7.906;2022-12-18T03:24:09;-4.70;75.80
77207;DHT22;66190;50.708;7.906;2022-12-18T03:26:37;-4.80;75.90
77207;DHT22;66190;50.708;7.906;2022-12-18T03:32:21;-4.80;76.00
77207;DHT22;66190;50.708;7.906;2022-12-18T03:34:51;-4.80;76.40
77207;DHT22;66190;50.708;7.906;2022-12-18T03:37:18;-4.80;76.40
77207;DHT22;66190;50.708;7.906;2022-12-18T03:39:43;-4.80;76.30
77207;DHT22;66190;50.708;7.906;2022-12-18T03:42:29;-4.80;76.00
77207;DHT22;66190;50.708;7.906;2022-12-18T03:47:31;-4.80;76.60
77207;DHT22;66190;50.708;7.906;2022-12-18T03:50:12;-4.90;76.20
77207;DHT22;66190;50.708;7.906;2022-12-18T03:53:09;-4.90;76.50
77207;DHT22;66190;50.708;7.906;2022-12-18T03:55:36;-4.90;76.50
77207;DHT22;66190;50.708;7.906;2022-12-18T03:58:04;-5.00;76.60
77207;DHT22;66190;50.708;7.906;2022-12-18T04:00:33;-5.00;76.60
77207;DHT22;66190;50.708;7.906;2022-12-18T04:03:00;-5.00;77.00
77207;DHT22;66190;50.708;7.906;2022-12-18T04:05:28;-5.00;77.10
77207;DHT22;66190;50.708;7.906;2022-12-18T04:07:56;-5.00;77.10
77207;DHT22;66190;50.708;7.906;2022-12-18T04:10:22;-5.00;76.90
77207;DHT22;66190;50.708;7.906;2022-12-18T04:12:48;-5.00;76.80
77207;DHT22;66190;50.708;7.906;2022-12-18T04:15:13;-5.00;77.10
77207;DHT22;66190;50.708;7.906;2022-12-18T04:17:46;-5.00;77.00
77207;DHT22;66190;50.708;7.906;2022-12-18T04:20:12;-5.00;77.00
77207;DHT22;66190;50.708;7.906;2022-12-18T04:22:38;-5.00;77.20
77207;DHT22;66190;50.708;7.906;2022-12-18T04:25:04;-5.00;77.00
77207;DHT22;66190;50.708;7.906;2022-12-18T04:27:30;-4.90;76.80
77207;DHT22;66190;50.708;7.906;2022-12-18T04:29:55;-4.90;76.80
77207;DHT22;66190;50.708;7.906;2022-12-18T04:32:21;-4.90;76.80
77207;DHT22;66190;50.708;7.906;2022-12-18T04:34:47;-4.90;76.90
77207;DHT22;66190;50.708;7.906;2022-12-18T04:37:13;-4.80;76.80
77207;DHT22;66190;50.708;7.906;2022-12-18T04:39:38;-4.70;76.60
77207;DHT22;66190;50.708;7.906;2022-12-18T04:42:04;-4.80;76.50
77207;DHT22;66190;50.708;7.906;2022-12-18T04:44:30;-4.60;76.50
77207;DHT22;66190;50.708;7.906;2022-12-18T04:46:55;-4.50;76.30
77207;DHT22;66190;50.708;7.906;2022-12-18T04:49:21;-4.60;76.20
77207;DHT22;66190;50.708;7.906;2022-12-18T04:51:47;-4.60;76.20
77207;DHT22;66190;50.708;7.906;2022-12-18T04:54:13;-4.60;76.10
77207;DHT22;66190;50.708;7.906;2022-12-18T04:56:38;-4.60;76.50
77207;DHT22;66190;50.708;7.906;2022-12-18T04:59:05;-4.60;76.60
77207;DHT22;66190;50.708;7.906;2022-12-18T05:01:30;-4.50;76.50
77207;DHT22;66190;50.708;7.906;2022-12-18T05:03:59;-4.60;76.30
77207;DHT22;66190;50.708;7.906;2022-12-18T05:06:24;-4.50;76.20
77207;DHT22;66190;50.708;7.906;2022-12-18T05:08:50;-4.50;76.20
77207;DHT22;66190;50.708;7.906;2022-12-18T05:11:16;-4.50;76.20
77207;DHT22;66190;50.708;7.906;2022-12-18T05:13:42;-4.50;76.00
77207;DHT22;66190;50.708;7.906;2022-12-18T05:16:08;-4.50;76.00
77207;DHT22;66190;50.708;7.906;2022-12-18T05:18:34;-4.50;76.30
77207;DHT22;66190;50.708;7.906;2022-12-18T05:21:00;-4.60;76.30
77207;DHT22;66190;50.708;7.906;2022-12-18T05:23:26;-4.50;76.00
77207;DHT22;66190;50.708;7.906;2022-12-18T05:25:56;-4.50;75.90
77207;DHT22;66190;50.708;7.906;2022-12-18T05:28:24;-4.50;76.40
77207;DHT22;66190;50.708;7.906;2022-12-18T05:30:52;-4.50;76.20
77207;DHT22;66190;50.708;7.906;2022-12-18T05:33:18;-4.60;76.50
77207;DHT22;66190;50.708;7.906;2022-12-18T05:35:44;-4.60;76.60
77207;DHT22;66190;50.708;7.906;2022-12-18T05:38:10;-4.50;76.60
77207;DHT22;66190;50.708;7.906;2022-12-18T05:40:36;-4.60;76.50
77207;DHT22;66190;50.708;7.906;2022-12-18T05:43:02;-4.50;76.40
77207;DHT22;66190;50.708;7.906;2022-12-18T05:45:27;-4.40;76.10
77207;DHT22;66190;50.708;7.906;2022-12-18T05:47:53;-4.50;75.90
77207;DHT22;66190;50.708;7.906;2022-12-18T05:50:19;-4.50;76.00
77207;DHT22;66190;50.708;7.906;2022-12-18T05:52:44;-4.40;75.90
77207;DHT22;66190;50.708;7.906;2022-12-18T05:55:10;-4.40;75.90
77207;DHT22;66190;50.708;7.906;2022-12-18T05:57:35;-4.50;75.80
77207;DHT22;66190;50.708;7.906;2022-12-18T06:00:02;-4.30;75.60
77207;DHT22;66190;50.708;7.906;2022-12-18T06:02:28;-4.40;75.40
77207;DHT22;66190;50.708;7.906;2022-12-18T06:04:53;-4.30;75.50
77207;DHT22;66190;50.708;7.906;2022-12-18T06:07:19;-4.30;75.40
77207;DHT22;66190;50.708;7.906;2022-12-18T06:09:45;-4.30;75.30
77207;DHT22;66190;50.708;7.906;2022-12-18T06:12:10;-4.30;75.30
77207;DHT22;66190;50.708;7.906;2022-12-18T06:14:36;-4.20;74.90
77207;DHT22;66190;50.708;7.906;2022-12-18T06:17:01;-4.20;75.20
77207;DHT22;66190;50.708;7.906;2022-12-18T06:19:27;-4.20;74.90
77207;DHT22;66190;50.708;7.906;2022-12-18T06:21:53;-4.20;74.60
77207;DHT22;66190;50.708;7.906;2022-12-18T06:24:18;-4.20;74.70
77207;DHT22;66190;50.708;7.906;2022-12-18T06:26:44;-4.10;74.30
77207;DHT22;66190;50.708;7.906;2022-12-18T06:29:09;-4.10;74.20
77207;DHT22;66190;50.708;7.906;2022-12-18T06:31:35;-4.10;74.20
77207;DHT22;66190;50.708;7.906;2022-12-18T06:34:04;-4.20;74.00
77207;DHT22;66190;50.708;7.906;2022-12-18T06:36:30;-4.20;73.90
77207;DHT22;66190;50.708;7.906;2022-12-18T06:38:57;-4.10;73.80
77207;DHT22;66190;50.708;7.906;2022-12-18T06:41:23;-4.20;73.80
77207;DHT22;66190;50.708;7.906;2022-12-18T06:43:49;-4.10;73.70
77207;DHT22;66190;50.708;7.906;2022-12-18T06:46:15;-4.10;73.50
77207;DHT22;66190;50.708;7.906;2022-12-18T06:48:40;-4.10;73.30
77207;DHT22;66190;50.708;7.906;2022-12-18T06:51:06;-4.20;73.70
77207;DHT22;66190;50.708;7.906;2022-12-18T06:53:32;-4.30;74.00
77207;DHT22;66190;50.708;7.906;2022-12-18T06:56:03;-4.20;73.70
77207;DHT22;66190;50.708;7.906;2022-12-18T06:58:29;-4.20;73.80
77207;DHT22;66190;50.708;7.906;2022-12-18T07:01:03;-4.20;73.60
77207;DHT22;66190;50.708;7.906;2022-12-18T07:03:29;-4.30;74.00
77207;DHT22;66190;50.708;7.906;2022-12-18T07:05:55;-4.20;74.00
77207;DHT22;66190;50.708;7.906;2022-12-18T07:08:21;-4.20;73.50
77207;DHT22;66190;50.708;7.906;2022-12-18T07:10:46;-4.20;73.60
77207;DHT22;66190;50.708;7.906;2022-12-18T07:13:14;-4.20;73.90
77207;DHT22;66190;50.708;7.906;2022-12-18T07:15:40;-4.20;73.60
77207;DHT22;66190;50.708;7.906;2022-12-18T07:18:06;-4.20;73.50
77207;DHT22;66190;50.708;7.906;2022-12-18T07:20:31;-4.20;73.40
77207;DHT22;66190;50.708;7.906;2022-12-18T07:22:57;-4.10;73.20
77207;DHT22;66190;50.708;7.906;2022-12-18T07:25:23;-4.20;72.90
77207;DHT22;66190;50.708;7.906;2022-12-18T07:27:48;-4.20;73.10
77207;DHT22;66190;50.708;7.906;2022-12-18T07:30:14;-4.20;73.10
77207;DHT22;66190;50.708;7.906;2022-12-18T07:32:40;-4.10;72.60
77207;DHT22;66190;50.708;7.906;2022-12-18T07:35:05;-4.10;72.70
77207;DHT22;66190;50.708;7.906;2022-12-18T07:37:31;-4.10;72.00
77207;DHT22;66190;50.708;7.906;2022-12-18T07:39:57;-4.10;72.30
77207;DHT22;66190;50.708;7.906;2022-12-18T07:42:22;-4.30;72.60
77207;DHT22;66190;50.708;7.906;2022-12-18T07:45:00;-4.20;72.60
77207;DHT22;66190;50.708;7.906;2022-12-18T07:47:27;-4.30;72.80
77207;DHT22;66190;50.708;7.906;2022-12-18T07:49:53;-4.20;72.60
77207;DHT22;66190;50.708;7.906;2022-12-18T07:52:18;-4.20;72.70
77207;DHT22;66190;50.708;7.906;2022-12-18T07:54:45;-4.10;72.40
77207;DHT22;66190;50.708;7.906;2022-12-18T07:57:11;-4.10;71.90
77207;DHT22;66190;50.708;7.906;2022-12-18T07:59:36;-4.10;71.90
77207;DHT22;66190;50.708;7.906;2022-12-18T08:02:02;-4.00;71.80
77207;DHT22;66190;50.708;7.906;2022-12-18T08:04:28;-3.90;71.40
77207;DHT22;66190;50.708;7.906;2022-12-18T08:06:54;-4.00;71.60
77207;DHT22;66190;50.708;7.906;2022-12-18T08:09:19;-3.80;71.00
77207;DHT22;66190;50.708;7.906;2022-12-18T08:11:45;-3.80;71.10
77207;DHT22;66190;50.708;7.906;2022-12-18T08:14:11;-3.80;70.90
77207;DHT22;66190;50.708;7.906;2022-12-18T08:16:36;-3.70;70.50
77207;DHT22;66190;50.708;7.906;2022-12-18T08:19:02;-3.70;70.30
77207;DHT22;66190;50.708;7.906;2022-12-18T08:21:30;-3.70;70.60
77207;DHT22;66190;50.708;7.906;2022-12-18T08:23:58;-3.60;70.10
77207;DHT22;66190;50.708;7.906;2022-12-18T08:26:26;-3.60;69.90
77207;DHT22;66190;50.708;7.906;2022-12-18T08:28:54;-3.50;69.50
77207;DHT22;66190;50.708;7.906;2022-12-18T08:31:20;-3.30;68.80
77207;DHT22;66190;50.708;7.906;2022-12-18T08:33:48;-3.40;68.80
77207;DHT22;66190;50.708;7.906;2022-12-18T08:36:15;-3.30;68.70
77207;DHT22;66190;50.708;7.906;2022-12-18T08:38:40;-3.40;68.80
77207;DHT22;66190;50.708;7.906;2022-12-18T08:41:12;-3.30;68.40
77207;DHT22;66190;50.708;7.906;2022-12-18T08:43:38;-3.30;68.60
77207;DHT22;66190;50.708;7.906;2022-12-18T08:46:24;-3.20;68.40
77207;DHT22;66190;50.708;7.906;2022-12-18T08:48:51;-3.30;68.30
77207;DHT22;66190;50.708;7.906;2022-12-18T08:51:18;-3.30;68.40
77207;DHT22;66190;50.708;7.906;2022-12-18T08:53:44;-3.30;68.40
77207;DHT22;66190;50.708;7.906;2022-12-18T08:56:10;-3.30;68.20
77207;DHT22;66190;50.708;7.906;2022-12-18T08:58:36;-3.20;67.70
77207;DHT22;66190;50.708;7.906;2022-12-18T09:01:07;-3.20;68.00
77207;DHT22;66190;50.708;7.906;2022-12-18T09:03:35;-3.20;67.90
77207;DHT22;66190;50.708;7.906;2022-12-18T09:06:01;-3.20;68.00
77207;DHT22;66190;50.708;7.906;2022-12-18T09:08:27;-3.00;67.50
77207;DHT22;66190;50.708;7.906;2022-12-18T09:10:53;-3.00;66.90
77207;DHT22;66190;50.708;7.906;2022-12-18T09:13:19;-2.90;67.10
77207;DHT22;66190;50.708;7.906;2022-12-18T09:15:51;-2.80;66.30
77207;DHT22;66190;50.708;7.906;2022-12-18T09:18:18;-2.70;65.90
77207;DHT22;66190;50.708;7.906;2022-12-18T09:20:45;-2.60;65.40
77207;DHT22;66190;50.708;7.906;2022-12-18T09:23:11;-2.60;65.60
77207;DHT22;66190;50.708;7.906;2022-12-18T09:25:37;-2.50;65.30
77207;DHT22;66190;50.708;7.906;2022-12-18T09:28:11;-2.20;64.10
77207;DHT22;66190;50.708;7.906;2022-12-18T09:30:38;-2.20;64.10
77207;DHT22;66190;50.708;7.906;2022-12-18T09:33:04;-2.10;63.50
77207;DHT22;66190;50.708;7.906;2022-12-18T09:35:30;-2.10;63.80
77207;DHT22;66190;50.708;7.906;2022-12-18T09:37:55;-2.00;63.40
77207;DHT22;66190;50.708;7.906;2022-12-18T09:40:23;-2.10;63.30
77207;DHT22;66190;50.708;7.906;2022-12-18T09:43:19;-2.10;63.80
77207;DHT22;66190;50.708;7.906;2022-12-18T09:45:49;-2.00;63.10
77207;DHT22;66190;50.708;7.906;2022-12-18T09:48:23;-2.00;62.70
77207;DHT22;66190;50.708;7.906;2022-12-18T09:50:52;-1.90;63.00
77207;DHT22;66190;50.708;7.906;2022-12-18T09:53:24;-1.90;63.00
77207;DHT22;66190;50.708;7.906;2022-12-18T09:55:51;-1.90;62.80
77207;DHT22;66190;50.708;7.906;2022-12-18T10:01:11;-1.80;63.40
77207;DHT22;66190;50.708;7.906;2022-12-18T10:03:38;-1.70;63.80
77207;DHT22;66190;50.708;7.906;2022-12-18T10:06:21;-1.60;63.60
77207;DHT22;66190;50.708;7.906;2022-12-18T10:09:00;-1.60;63.20
77207;DHT22;66190;50.708;7.906;2022-12-18T10:27:17;-1.30;64.50
77207;DHT22;66190;50.708;7.906;2022-12-18T10:29:44;-1.40;64.40
77207;DHT22;66190;50.708;7.906;2022-12-18T10:32:19;-1.50;64.90
77207;DHT22;66190;50.708;7.906;2022-12-18T10:34:46;-1.50;65.30
77207;DHT22;66190;50.708;7.906;2022-12-18T10:37:17;-1.40;64.80
77207;DHT22;66190;50.708;7.906;2022-12-18T10:39:44;-1.40;65.50
77207;DHT22;66190;50.708;7.906;2022-12-18T10:42:19;-1.40;65.40
77207;DHT22;66190;50.708;7.906;2022-12-18T10:44:45;-1.40;65.00
77207;DHT22;66190;50.708;7.906;2022-12-18T10:47:14;-1.40;65.80
77207;DHT22;66190;50.708;7.906;2022-12-18T10:49:52;-1.40;65.00
77207;DHT22;66190;50.708;7.906;2022-12-18T10:52:25;-1.40;64.40
77207;DHT22;66190;50.708;7.906;2022-12-18T10:55:03;-1.40;64.70
77207;DHT22;66190;50.708;7.906;2022-12-18T10:57:30;-1.40;64.50
77207;DHT22;66190;50.708;7.906;2022-12-18T10:59:58;-1.30;64.30
77207;DHT22;66190;50.708;7.906;2022-12-18T11:02:44;-1.40;64.70
77207;DHT22;66190;50.708;7.906;2022-12-18T11:07:55;-1.20;64.20
77207;DHT22;66190;50.708;7.906;2022-12-18T11:10:25;-1.10;64.00
77207;DHT22;66190;50.708;7.906;2022-12-18T11:12:52;-1.10;63.30
77207;DHT22;66190;50.708;7.906;2022-12-18T11:15:25;-1.00;62.90
77207;DHT22;66190;50.708;7.906;2022-12-18T11:17:52;-0.90;63.40
77207;DHT22;66190;50.708;7.906;2022-12-18T11:20:27;-1.00;62.60
77207;DHT22;66190;50.708;7.906;2022-12-18T11:23:00;-1.00;62.70
77207;DHT22;66190;50.708;7.906;2022-12-18T11:25:27;-1.00;62.30
77207;DHT22;66190;50.708;7.906;2022-12-18T11:27:56;-1.00;62.40
77207;DHT22;66190;50.708;7.906;2022-12-18T11:30:28;-1.00;62.80
77207;DHT22;66190;50.708;7.906;2022-12-18T11:33:10;-1.00;62.60
77207;DHT22;66190;50.708;7.906;2022-12-18T11:35:45;-1.10;63.30
77207;DHT22;66190;50.708;7.906;2022-12-18T11:43:43;-1.40;64.30
77207;DHT22;66190;50.708;7.906;2022-12-18T11:46:16;-1.40;64.60
77207;DHT22;66190;50.708;7.906;2022-12-18T11:49:12;-1.40;65.00
77207;DHT22;66190;50.708;7.906;2022-12-18T11:54:14;-1.40;65.10
77207;DHT22;66190;50.708;7.906;2022-12-18T12:13:23;-1.50;66.80
77207;DHT22;66190;50.708;7.906;2022-12-18T12:21:28;-1.60;67.30
77207;DHT22;66190;50.708;7.906;2022-12-18T12:39:47;-1.80;66.90
77207;DHT22;66190;50.708;7.906;2022-12-18T12:42:38;-1.80;67.10
77207;DHT22;66190;50.708;7.906;2022-12-18T12:51:25;-1.80;67.20
77207;DHT22;66190;50.708;7.906;2022-12-18T12:53:50;-1.80;67.30
77207;DHT22;66190;50.708;7.906;2022-12-18T12:56:18;-1.80;66.50
77207;DHT22;66190;50.708;7.906;2022-12-18T13:06:47;-1.90;67.00
77207;DHT22;66190;50.708;7.906;2022-12-18T13:09:15;-1.90;66.60
77207;DHT22;66190;50.708;7.906;2022-12-18T13:11:43;-2.00;67.10
77207;DHT22;66190;50.708;7.906;2022-12-18T13:14:36;-2.10;66.60
77207;DHT22;66190;50.708;7.906;2022-12-18T13:19:52;-2.20;67.00
77207;DHT22;66190;50.708;7.906;2022-12-18T13:22:48;-2.20;66.70
77207;DHT22;66190;50.708;7.906;2022-12-18T13:25:43;-2.20;67.20
77207;DHT22;66190;50.708;7.906;2022-12-18T13:28:11;-2.30;67.10
77207;DHT22;66190;50.708;7.906;2022-12-18T13:30:42;-2.40;67.10
77207;DHT22;66190;50.708;7.906;2022-12-18T13:40:57;-2.50;68.00
77207;DHT22;66190;50.708;7.906;2022-12-18T13:43:57;-2.60;68.00
77207;DHT22;66190;50.708;7.906;2022-12-18T13:46:44;-2.60;68.30
77207;DHT22;66190;50.708;7.906;2022-12-18T13:51:57;-2.70;69.10
77207;DHT22;66190;50.708;7.906;2022-12-18T13:54:33;-2.80;69.10
77207;DHT22;66190;50.708;7.906;2022-12-18T13:57:00;-2.70;69.10
77207;DHT22;66190;50.708;7.906;2022-12-18T13:59:36;-2.80;68.80
77207;DHT22;66190;50.708;7.906;2022-12-18T14:02:16;-2.80;69.00
77207;DHT22;66190;50.708;7.906;2022-12-18T14:04:45;-2.80;69.30
77207;DHT22;66190;50.708;7.906;2022-12-18T14:07:18;-2.80;68.80
77207;DHT22;66190;50.708;7.906;2022-12-18T14:10:01;-2.90;69.10
77207;DHT22;66190;50.708;7.906;2022-12-18T14:12:32;-2.90;69.20
77207;DHT22;66190;50.708;7.906;2022-12-18T14:21:00;-2.90;68.90
77207;DHT22;66190;50.708;7.906;2022-12-18T14:26:42;-2.90;68.70
77207;DHT22;66190;50.708;7.906;2022-12-18T14:28:49;-3.00;69.00
77207;DHT22;66190;50.708;7.906;2022-12-18T14:31:26;-3.00;68.60
77207;DHT22;66190;50.708;7.906;2022-12-18T14:33:52;-3.00;68.90
77207;DHT22;66190;50.708;7.906;2022-12-18T14:36:23;-3.00;68.60
77207;DHT22;66190;50.708;7.906;2022-12-18T14:39:01;-2.90;69.00
77207;DHT22;66190;50.708;7.906;2022-12-18T14:41:27;-3.00;69.00
77207;DHT22;66190;50.708;7.906;2022-12-18T14:43:54;-3.10;69.00
77207;DHT22;66190;50.708;7.906;2022-12-18T14:48:59;-3.20;69.00
77207;DHT22;66190;50.708;7.906;2022-12-18T14:51:27;-3.20;69.20
77207;DHT22;66190;50.708;7.906;2022-12-18T14:54:02;-3.20;69.00
77207;DHT22;66190;50.708;7.906;2022-12-18T14:56:34;-3.20;68.90
77207;DHT22;66190;50.708;7.906;2022-12-18T14:59:03;-3.20;69.00
77207;DHT22;66190;50.708;7.906;2022-12-18T15:01:36;-3.30;69.10
77207;DHT22;66190;50.708;7.906;2022-12-18T15:04:04;-3.30;69.80
77207;DHT22;66190;50.708;7.906;2022-12-18T15:06:37;-3.40;70.10
77207;DHT22;66190;50.708;7.906;2022-12-18T15:09:25;-3.30;69.30
77207;DHT22;66190;50.708;7.906;2022-12-18T15:11:56;-3.30;69.60
77207;DHT22;66190;50.708;7.906;2022-12-18T15:14:41;-3.30;69.80
77207;DHT22;66190;50.708;7.906;2022-12-18T15:17:21;-3.30;70.00
77207;DHT22;66190;50.708;7.906;2022-12-18T15:19:50;-3.30;69.70
77207;DHT22;66190;50.708;7.906;2022-12-18T15:22:24;-3.30;70.00
77207;DHT22;66190;50.708;7.906;2022-12-18T15:24:50;-3.40;70.00
77207;DHT22;66190;50.708;7.906;2022-12-18T15:27:35;-3.40;70.30
77207;DHT22;66190;50.708;7.906;2022-12-18T15:32:38;-3.50;70.70
77207;DHT22;66190;50.708;7.906;2022-12-18T15:37:38;-3.40;70.40
77207;DHT22;66190;50.708;7.906;2022-12-18T15:40:04;-3.50;70.40
77207;DHT22;66190;50.708;7.906;2022-12-18T15:42:30;-3.50;70.40
77207;DHT22;66190;50.708;7.906;2022-12-18T15:45:14;-3.60;70.60
77207;DHT22;66190;50.708;7.906;2022-12-18T15:47:40;-3.60;71.00
77207;DHT22;66190;50.708;7.906;2022-12-18T15:50:09;-3.60;71.00
77207;DHT22;66190;50.708;7.906;2022-12-18T15:52:47;-3.70;71.20
77207;DHT22;66190;50.708;7.906;2022-12-18T15:55:18;-3.70;71.20
77207;DHT22;66190;50.708;7.906;2022-12-18T15:58:04;-3.70;71.50
77207;DHT22;66190;50.708;7.906;2022-12-18T16:00:30;-3.50;71.90
77207;DHT22;66190;50.708;7.906;2022-12-18T16:02:55;-3.20;70.40
77207;DHT22;66190;50.708;7.906;2022-12-18T16:05:22;-3.30;70.40
77207;DHT22;66190;50.708;7.906;2022-12-18T16:07:48;-3.20;70.20
77207;DHT22;66190;50.708;7.906;2022-12-18T16:10:14;-3.30;70.00
77207;DHT22;66190;50.708;7.906;2022-12-18T16:12:41;-3.30;70.30
77207;DHT22;66190;50.708;7.906;2022-12-18T16:15:07;-3.40;70.50
77207;DHT22;66190;50.708;7.906;2022-12-18T16:17:33;-3.40;70.70
77207;DHT22;66190;50.708;7.906;2022-12-18T16:19:58;-3.40;70.90
77207;DHT22;66190;50.708;7.906;2022-12-18T16:22:29;-3.40;71.00
77207;DHT22;66190;50.708;7.906;2022-12-18T16:24:55;-3.40;71.50
77207;DHT22;66190;50.708;7.906;2022-12-18T16:27:22;-3.40;71.40
77207;DHT22;66190;50.708;7.906;2022-12-18T16:29:48;-3.40;71.40
77207;DHT22;66190;50.708;7.906;2022-12-18T16:32:17;-3.40;71.40
77207;DHT22;66190;50.708;7.906;2022-12-18T16:34:43;-3.40;71.40
77207;DHT22;66190;50.708;7.906;2022-12-18T16:37:11;-3.40;71.50
77207;DHT22;66190;50.708;7.906;2022-12-18T16:39:38;-3.50;71.40
77207;DHT22;66190;50.708;7.906;2022-12-18T16:42:16;-3.60;71.60
77207;DHT22;66190;50.708;7.906;2022-12-18T16:44:44;-3.60;71.80
77207;DHT22;66190;50.708;7.906;2022-12-18T16:47:10;-3.50;71.60
77207;DHT22;66190;50.708;7.906;2022-12-18T16:49:36;-3.70;71.80
77207;DHT22;66190;50.708;7.906;2022-12-18T16:52:03;-3.70;71.90
77207;DHT22;66190;50.708;7.906;2022-12-18T16:54:29;-3.70;72.10
77207;DHT22;66190;50.708;7.906;2022-12-18T16:56:55;-3.70;72.10
77207;DHT22;66190;50.708;7.906;2022-12-18T16:59:21;-3.80;72.60
77207;DHT22;66190;50.708;7.906;2022-12-18T17:01:47;-3.70;72.40
77207;DHT22;66190;50.708;7.906;2022-12-18T17:04:19;-3.70;72.40
77207;DHT22;66190;50.708;7.906;2022-12-18T17:06:45;-3.80;72.80
77207;DHT22;66190;50.708;7.906;2022-12-18T17:09:17;-3.80;73.00
77207;DHT22;66190;50.708;7.906;2022-12-18T17:11:45;-3.90;73.30
77207;DHT22;66190;50.708;7.906;2022-12-18T17:14:17;-3.90;73.50
77207;DHT22;66190;50.708;7.906;2022-12-18T17:16:43;-3.80;73.40
77207;DHT22;66190;50.708;7.906;2022-12-18T17:19:09;-3.80;73.20
77207;DHT22;66190;50.708;7.906;2022-12-18T17:21:34;-3.70;73.00
77207;DHT22;66190;50.708;7.906;2022-12-18T17:24:01;-3.80;73.20
77207;DHT22;66190;50.708;7.906;2022-12-18T17:26:27;-3.90;73.80
77207;DHT22;66190;50.708;7.906;2022-12-18T17:28:55;-3.80;73.70
77207;DHT22;66190;50.708;7.906;2022-12-18T17:31:24;-3.90;74.30
77207;DHT22;66190;50.708;7.906;2022-12-18T17:33:50;-3.90;74.30
77207;DHT22;66190;50.708;7.906;2022-12-18T17:36:17;-3.80;75.20
77207;DHT22;66190;50.708;7.906;2022-12-18T17:38:49;-3.80;74.40
77207;DHT22;66190;50.708;7.906;2022-12-18T17:41:15;-3.90;74.70
77207;DHT22;66190;50.708;7.906;2022-12-18T17:43:41;-4.00;74.70
77207;DHT22;66190;50.708;7.906;2022-12-18T17:46:12;-3.90;74.90
77207;DHT22;66190;50.708;7.906;2022-12-18T17:48:39;-3.90;75.00
77207;DHT22;66190;50.708;7.906;2022-12-18T17:51:06;-3.90;75.30